sensor_id;sensor_type;location;lat;lon;timestamp;P1;durP1;ratioP1;P2;durP2;ratioP2
54795;SDS011;40693;43.884;20.340;2022-09-21T00:00:00;4.03;;;1.80;;
54795;SDS011;40693;43.884;20.340;2022-09-21T00:02:27;2.90;;;2.05;;
54795;SDS011;40693;43.884;20.340;2022-09-21T00:04:53;4.40;;;2.13;;
54795;SDS011;40693;43.884;20.340;2022-09-21T00:07:18;4.10;;;1.92;;
54795;SDS011;40693;43.884;20.340;2022-09-21T00:09:44;4.47;;;2.95;;
54795;SDS011;40693;43.884;20.340;2022-09-21T00:12:10;4.18;;;2.35;;
54795;SDS011;40693;43.884;20.340;2022-09-21T00:14:36;3.65;;;2.35;;
54795;SDS011;40693;43.884;20.340;2022-09-21T00:17:02;4.28;;;2.65;;
54795;SDS011;40693;43.884;20.340;2022-09-21T00:19:28;3.90;;;2.35;;
54795;SDS011;40693;43.884;20.340;2022-09-21T00:21:54;4.00;;;2.60;;
54795;SDS011;40693;43.884;20.340;2022-09-21T00:24:20;4.57;;;3.03;;
54795;SDS011;40693;43.884;20.340;2022-09-21T00:26:46;3.13;;;2.17;;
54795;SDS011;40693;43.884;20.340;2022-09-21T00:29:12;3.72;;;2.38;;
54795;SDS011;40693;43.884;20.340;2022-09-21T00:31:38;4.50;;;2.60;;
54795;SDS011;40693;43.884;20.340;2022-09-21T00:34:04;4.78;;;2.50;;
54795;SDS011;40693;43.884;20.340;2022-09-21T00:36:32;6.22;;;2.13;;
54795;SDS011;40693;43.884;20.340;2022-09-21T00:38:58;5.60;;;2.28;;
54795;SDS011;40693;43.884;20.340;2022-09-21T00:41:25;5.95;;;2.75;;
54795;SDS011;40693;43.884;20.340;2022-09-21T00:46:40;4.57;;;2.88;;
54795;SDS011;40693;43.884;20.340;2022-09-21T00:49:08;3.30;;;1.98;;
54795;SDS011;40693;43.884;20.340;2022-09-21T00:51:34;3.30;;;2.20;;
54795;SDS011;40693;43.884;20.340;2022-09-21T00:54:02;4.03;;;2.78;;
54795;SDS011;40693;43.884;20.340;2022-09-21T00:56:32;3.15;;;2.17;;
54795;SDS011;40693;43.884;20.340;2022-09-21T00:58:58;3.47;;;1.92;;
54795;SDS011;40693;43.884;20.340;2022-09-21T01:01:24;3.42;;;1.95;;
54795;SDS011;40693;43.884;20.340;2022-09-21T01:03:50;3.45;;;2.45;;
54795;SDS011;40693;43.884;20.340;2022-09-21T01:06:18;3.85;;;2.75;;
54795;SDS011;40693;43.884;20.340;2022-09-21T01:08:45;4.70;;;2.50;;
54795;SDS011;40693;43.884;20.340;2022-09-21T01:19:45;5.18;;;2.10;;
54795;SDS011;40693;43.884;20.340;2022-09-21T01:31:16;4.53;;;2.75;;
54795;SDS011;40693;43.884;20.340;2022-09-21T01:33:50;5.68;;;2.90;;
54795;SDS011;40693;43.884;20.340;2022-09-21T01:36:19;7.57;;;3.95;;
54795;SDS011;40693;43.884;20.340;2022-09-21T01:38:51;8.73;;;3.80;;
54795;SDS011;40693;43.884;20.340;2022-09-21T01:41:21;7.50;;;4.53;;
54795;SDS011;40693;43.884;20.340;2022-09-21T01:43:55;16.38;;;11.23;;
54795;SDS011;40693;43.884;20.340;2022-09-21T01:46:32;18.30;;;12.50;;
54795;SDS011;40693;43.884;20.340;2022-09-21T01:49:02;24.77;;;9.93;;
54795;SDS011;40693;43.884;20.340;2022-09-21T01:51:40;10.05;;;8.45;;
54795;SDS011;40693;43.884;20.340;2022-09-21T01:54:20;9.05;;;5.82;;
54795;SDS011;40693;43.884;20.340;2022-09-21T01:57:04;5.70;;;4.53;;
54795;SDS011;40693;43.884;20.340;2022-09-21T02:02:28;5.55;;;3.08;;
54795;SDS011;40693;43.884;20.340;2022-09-21T02:05:04;6.57;;;3.00;;
54795;SDS011;40693;43.884;20.340;2022-09-21T02:07:31;3.53;;;2.35;;
54795;SDS011;40693;43.884;20.340;2022-09-21T02:09:58;5.63;;;2.85;;
54795;SDS011;40693;43.884;20.340;2022-09-21T02:12:26;3.22;;;2.08;;
54795;SDS011;40693;43.884;20.340;2022-09-21T02:14:51;4.05;;;2.15;;
54795;SDS011;40693;43.884;20.340;2022-09-21T02:17:44;3.53;;;2.20;;
54795;SDS011;40693;43.884;20.340;2022-09-21T02:20:29;4.82;;;2.70;;
54795;SDS011;40693;43.884;20.340;2022-09-21T02:25:45;3.17;;;2.10;;
54795;SDS011;40693;43.884;20.340;2022-09-21T02:31:58;2.58;;;2.28;;
54795;SDS011;40693;43.884;20.340;2022-09-21T02:40:11;2.60;;;1.60;;
54795;SDS011;40693;43.884;20.340;2022-09-21T02:42:48;4.15;;;3.13;;
54795;SDS011;40693;43.884;20.340;2022-09-21T02:45:19;5.03;;;1.95;;
54795;SDS011;40693;43.884;20.340;2022-09-21T02:47:52;4.95;;;1.98;;
54795;SDS011;40693;43.884;20.340;2022-09-21T02:50:43;3.97;;;2.35;;
54795;SDS011;40693;43.884;20.340;2022-09-21T02:53:13;4.90;;;2.15;;
54795;SDS011;40693;43.884;20.340;2022-09-21T02:55:53;4.30;;;2.90;;
54795;SDS011;40693;43.884;20.340;2022-09-21T02:58:24;3.33;;;2.03;;
54795;SDS011;40693;43.884;20.340;2022-09-21T03:00:53;5.03;;;2.20;;
54795;SDS011;40693;43.884;20.340;2022-09-21T03:03:22;7.30;;;2.97;;
54795;SDS011;40693;43.884;20.340;2022-09-21T03:05:50;6.07;;;2.88;;
54795;SDS011;40693;43.884;20.340;2022-09-21T03:08:17;3.85;;;2.92;;
54795;SDS011;40693;43.884;20.340;2022-09-21T03:10:44;3.45;;;2.67;;
54795;SDS011;40693;43.884;20.340;2022-09-21T03:13:11;3.53;;;2.30;;
54795;SDS011;40693;43.884;20.340;2022-09-21T03:15:38;3.22;;;2.30;;
54795;SDS011;40693;43.884;20.340;2022-09-21T03:18:05;7.20;;;2.67;;
54795;SDS011;40693;43.884;20.340;2022-09-21T03:20:36;4.47;;;2.80;;
54795;SDS011;40693;43.884;20.340;2022-09-21T03:23:04;6.13;;;2.53;;
54795;SDS011;40693;43.884;20.340;2022-09-21T03:25:30;4.03;;;2.35;;
54795;SDS011;40693;43.884;20.340;2022-09-21T03:27:57;3.92;;;2.55;;
54795;SDS011;40693;43.884;20.340;2022-09-21T03:30:24;5.68;;;2.35;;
54795;SDS011;40693;43.884;20.340;2022-09-21T03:32:51;4.85;;;3.22;;
54795;SDS011;40693;43.884;20.340;2022-09-21T03:35:18;7.57;;;3.20;;
54795;SDS011;40693;43.884;20.340;2022-09-21T03:37:45;4.05;;;2.00;;
54795;SDS011;40693;43.884;20.340;2022-09-21T03:40:13;3.42;;;1.90;;
54795;SDS011;40693;43.884;20.340;2022-09-21T03:42:39;2.95;;;2.60;;
54795;SDS011;40693;43.884;20.340;2022-09-21T03:45:07;2.80;;;1.95;;
54795;SDS011;40693;43.884;20.340;2022-09-21T03:47:34;2.72;;;1.85;;
54795;SDS011;40693;43.884;20.340;2022-09-21T03:50:00;2.38;;;1.70;;
54795;SDS011;40693;43.884;20.340;2022-09-21T03:52:26;2.60;;;1.75;;
54795;SDS011;40693;43.884;20.340;2022-09-21T03:54:52;2.40;;;1.88;;
54795;SDS011;40693;43.884;20.340;2022-09-21T03:57:19;2.80;;;1.98;;
54795;SDS011;40693;43.884;20.340;2022-09-21T03:59:44;2.22;;;1.58;;
54795;SDS011;40693;43.884;20.340;2022-09-21T04:02:10;2.70;;;1.73;;
54795;SDS011;40693;43.884;20.340;2022-09-21T04:04:36;4.05;;;2.22;;
54795;SDS011;40693;43.884;20.340;2022-09-21T04:07:02;2.97;;;1.88;;
54795;SDS011;40693;43.884;20.340;2022-09-21T04:09:28;2.40;;;1.63;;
54795;SDS011;40693;43.884;20.340;2022-09-21T04:11:55;2.03;;;1.77;;
54795;SDS011;40693;43.884;20.340;2022-09-21T04:14:21;2.08;;;1.80;;
54795;SDS011;40693;43.884;20.340;2022-09-21T04:16:47;3.13;;;1.83;;
54795;SDS011;40693;43.884;20.340;2022-09-21T04:19:16;2.85;;;1.92;;
54795;SDS011;40693;43.884;20.340;2022-09-21T04:21:42;2.53;;;1.77;;
54795;SDS011;40693;43.884;20.340;2022-09-21T04:24:08;3.10;;;1.63;;
54795;SDS011;40693;43.884;20.340;2022-09-21T04:26:34;3.75;;;1.75;;
54795;SDS011;40693;43.884;20.340;2022-09-21T04:29:00;3.42;;;1.67;;
54795;SDS011;40693;43.884;20.340;2022-09-21T04:31:27;4.80;;;2.17;;
54795;SDS011;40693;43.884;20.340;2022-09-21T04:33:55;2.67;;;1.77;;
54795;SDS011;40693;43.884;20.340;2022-09-21T04:36:22;4.95;;;2.20;;
54795;SDS011;40693;43.884;20.340;2022-09-21T04:38:49;4.68;;;1.95;;
54795;SDS011;40693;43.884;20.340;2022-09-21T04:41:16;2.50;;;1.80;;
54795;SDS011;40693;43.884;20.340;2022-09-21T04:43:42;3.83;;;2.60;;
54795;SDS011;40693;43.884;20.340;2022-09-21T04:46:13;3.58;;;1.88;;
54795;SDS011;40693;43.884;20.340;2022-09-21T04:48:41;4.50;;;2.25;;
54795;SDS011;40693;43.884;20.340;2022-09-21T04:51:07;13.07;;;10.75;;
54795;SDS011;40693;43.884;20.340;2022-09-21T04:53:35;13.77;;;9.43;;
54795;SDS011;40693;43.884;20.340;2022-09-21T04:56:02;15.85;;;9.93;;
54795;SDS011;40693;43.884;20.340;2022-09-21T04:58:29;9.20;;;5.43;;
54795;SDS011;40693;43.884;20.340;2022-09-21T05:00:56;7.90;;;4.40;;
54795;SDS011;40693;43.884;20.340;2022-09-21T05:03:23;8.18;;;5.85;;
54795;SDS011;40693;43.884;20.340;2022-09-21T05:05:50;6.65;;;5.05;;
54795;SDS011;40693;43.884;20.340;2022-09-21T05:08:20;7.25;;;4.38;;
54795;SDS011;40693;43.884;20.340;2022-09-21T05:11:06;9.05;;;5.18;;
54795;SDS011;40693;43.884;20.340;2022-09-21T05:13:33;7.82;;;4.65;;
54795;SDS011;40693;43.884;20.340;2022-09-21T05:15:59;4.45;;;2.80;;
54795;SDS011;40693;43.884;20.340;2022-09-21T05:18:25;5.43;;;3.22;;
54795;SDS011;40693;43.884;20.340;2022-09-21T05:20:55;6.68;;;4.70;;
54795;SDS011;40693;43.884;20.340;2022-09-21T05:23:22;6.53;;;2.67;;
54795;SDS011;40693;43.884;20.340;2022-09-21T05:25:48;3.88;;;3.03;;
54795;SDS011;40693;43.884;20.340;2022-09-21T05:28:14;4.00;;;2.80;;
54795;SDS011;40693;43.884;20.340;2022-09-21T05:30:42;3.40;;;2.47;;
54795;SDS011;40693;43.884;20.340;2022-09-21T05:33:09;3.85;;;2.47;;
54795;SDS011;40693;43.884;20.340;2022-09-21T05:38:53;4.63;;;2.70;;
54795;SDS011;40693;43.884;20.340;2022-09-21T05:41:21;3.88;;;2.17;;
54795;SDS011;40693;43.884;20.340;2022-09-21T05:43:47;6.93;;;2.90;;
54795;SDS011;40693;43.884;20.340;2022-09-21T05:54:47;5.65;;;2.60;;
54795;SDS011;40693;43.884;20.340;2022-09-21T06:00:11;3.42;;;2.28;;
54795;SDS011;40693;43.884;20.340;2022-09-21T06:05:17;3.03;;;2.25;;
54795;SDS011;40693;43.884;20.340;2022-09-21T06:07:43;4.60;;;3.33;;
54795;SDS011;40693;43.884;20.340;2022-09-21T06:10:09;4.35;;;3.05;;
54795;SDS011;40693;43.884;20.340;2022-09-21T06:12:36;5.60;;;3.45;;
54795;SDS011;40693;43.884;20.340;2022-09-21T06:15:03;5.03;;;2.90;;
54795;SDS011;40693;43.884;20.340;2022-09-21T06:17:31;3.28;;;2.63;;
54795;SDS011;40693;43.884;20.340;2022-09-21T06:19:57;6.57;;;2.90;;
54795;SDS011;40693;43.884;20.340;2022-09-21T06:22:23;4.78;;;3.10;;
54795;SDS011;40693;43.884;20.340;2022-09-21T06:24:52;4.88;;;3.25;;
54795;SDS011;40693;43.884;20.340;2022-09-21T06:27:18;4.25;;;3.20;;
54795;SDS011;40693;43.884;20.340;2022-09-21T06:29:44;6.30;;;3.15;;
54795;SDS011;40693;43.884;20.340;2022-09-21T06:32:09;6.72;;;3.33;;
54795;SDS011;40693;43.884;20.340;2022-09-21T06:34:35;5.25;;;3.33;;
54795;SDS011;40693;43.884;20.340;2022-09-21T06:37:02;6.63;;;3.45;;
54795;SDS011;40693;43.884;20.340;2022-09-21T06:39:28;7.53;;;3.75;;
54795;SDS011;40693;43.884;20.340;2022-09-21T06:41:54;4.18;;;3.25;;
54795;SDS011;40693;43.884;20.340;2022-09-21T06:44:20;5.68;;;3.97;;
54795;SDS011;40693;43.884;20.340;2022-09-21T06:46:46;5.88;;;3.70;;
54795;SDS011;40693;43.884;20.340;2022-09-21T06:49:11;4.00;;;3.25;;
54795;SDS011;40693;43.884;20.340;2022-09-21T06:51:37;5.13;;;3.70;;
54795;SDS011;40693;43.884;20.340;2022-09-21T06:54:03;4.35;;;2.80;;
54795;SDS011;40693;43.884;20.340;2022-09-21T06:56:29;3.92;;;3.03;;
54795;SDS011;40693;43.884;20.340;2022-09-21T06:58:55;5.45;;;3.42;;
54795;SDS011;40693;43.884;20.340;2022-09-21T07:01:21;6.80;;;3.42;;
54795;SDS011;40693;43.884;20.340;2022-09-21T07:03:49;5.60;;;4.18;;
54795;SDS011;40693;43.884;20.340;2022-09-21T07:06:16;5.90;;;3.90;;
54795;SDS011;40693;43.884;20.340;2022-09-21T07:08:42;5.82;;;3.65;;
54795;SDS011;40693;43.884;20.340;2022-09-21T07:11:10;5.78;;;3.70;;
54795;SDS011;40693;43.884;20.340;2022-09-21T07:13:36;7.38;;;3.83;;
54795;SDS011;40693;43.884;20.340;2022-09-21T07:16:06;6.15;;;4.55;;
54795;SDS011;40693;43.884;20.340;2022-09-21T07:18:33;7.65;;;5.03;;
54795;SDS011;40693;43.884;20.340;2022-09-21T07:21:02;7.15;;;5.05;;
54795;SDS011;40693;43.884;20.340;2022-09-21T07:23:29;6.32;;;4.75;;
54795;SDS011;40693;43.884;20.340;2022-09-21T07:25:59;6.93;;;5.43;;
54795;SDS011;40693;43.884;20.340;2022-09-21T07:28:26;6.35;;;4.57;;
54795;SDS011;40693;43.884;20.340;2022-09-21T07:30:52;6.18;;;4.82;;
54795;SDS011;40693;43.884;20.340;2022-09-21T07:33:18;6.53;;;4.47;;
54795;SDS011;40693;43.884;20.340;2022-09-21T07:35:53;6.88;;;5.13;;
54795;SDS011;40693;43.884;20.340;2022-09-21T07:38:21;6.88;;;4.40;;
54795;SDS011;40693;43.884;20.340;2022-09-21T07:40:48;7.80;;;5.03;;
54795;SDS011;40693;43.884;20.340;2022-09-21T07:43:13;8.07;;;7.00;;
54795;SDS011;40693;43.884;20.340;2022-09-21T07:45:40;7.55;;;5.10;;
54795;SDS011;40693;43.884;20.340;2022-09-21T07:48:06;7.90;;;4.80;;
54795;SDS011;40693;43.884;20.340;2022-09-21T07:50:35;7.03;;;4.80;;
54795;SDS011;40693;43.884;20.340;2022-09-21T07:53:03;5.25;;;3.85;;
54795;SDS011;40693;43.884;20.340;2022-09-21T07:55:29;3.65;;;3.10;;
54795;SDS011;40693;43.884;20.340;2022-09-21T07:57:55;3.45;;;2.55;;
54795;SDS011;40693;43.884;20.340;2022-09-21T08:00:39;4.03;;;2.97;;
54795;SDS011;40693;43.884;20.340;2022-09-21T08:03:05;3.20;;;2.28;;
54795;SDS011;40693;43.884;20.340;2022-09-21T08:05:31;3.40;;;2.60;;
54795;SDS011;40693;43.884;20.340;2022-09-21T08:07:57;2.75;;;2.55;;
54795;SDS011;40693;43.884;20.340;2022-09-21T08:10:23;2.53;;;2.13;;
54795;SDS011;40693;43.884;20.340;2022-09-21T08:12:52;3.70;;;2.30;;
54795;SDS011;40693;43.884;20.340;2022-09-21T08:15:19;2.72;;;2.17;;
54795;SDS011;40693;43.884;20.340;2022-09-21T08:17:44;2.75;;;2.38;;
54795;SDS011;40693;43.884;20.340;2022-09-21T08:20:10;2.95;;;2.00;;
54795;SDS011;40693;43.884;20.340;2022-09-21T08:22:37;3.40;;;2.88;;
54795;SDS011;40693;43.884;20.340;2022-09-21T08:25:03;2.70;;;2.17;;
54795;SDS011;40693;43.884;20.340;2022-09-21T08:27:29;2.67;;;2.38;;
54795;SDS011;40693;43.884;20.340;2022-09-21T08:29:54;4.45;;;2.45;;
54795;SDS011;40693;43.884;20.340;2022-09-21T08:32:20;3.97;;;2.72;;
54795;SDS011;40693;43.884;20.340;2022-09-21T08:34:47;4.28;;;2.45;;
54795;SDS011;40693;43.884;20.340;2022-09-21T08:37:14;5.68;;;3.78;;
54795;SDS011;40693;43.884;20.340;2022-09-21T08:39:40;5.53;;;3.63;;
54795;SDS011;40693;43.884;20.340;2022-09-21T08:42:12;4.15;;;3.08;;
54795;SDS011;40693;43.884;20.340;2022-09-21T08:44:58;4.20;;;3.17;;
54795;SDS011;40693;43.884;20.340;2022-09-21T08:47:42;6.07;;;3.15;;
54795;SDS011;40693;43.884;20.340;2022-09-21T08:53:04;6.85;;;4.60;;
54795;SDS011;40693;43.884;20.340;2022-09-21T08:55:37;5.65;;;5.00;;
54795;SDS011;40693;43.884;20.340;2022-09-21T08:58:04;4.90;;;3.67;;
54795;SDS011;40693;43.884;20.340;2022-09-21T09:00:45;4.43;;;3.05;;
54795;SDS011;40693;43.884;20.340;2022-09-21T09:05:50;6.57;;;4.78;;
54795;SDS011;40693;43.884;20.340;2022-09-21T09:21:41;4.10;;;2.95;;
54795;SDS011;40693;43.884;20.340;2022-09-21T09:24:10;4.28;;;3.25;;
54795;SDS011;40693;43.884;20.340;2022-09-21T09:26:59;5.60;;;3.13;;
54795;SDS011;40693;43.884;20.340;2022-09-21T09:32:25;3.95;;;3.53;;
54795;SDS011;40693;43.884;20.340;2022-09-21T09:35:14;5.63;;;4.35;;
54795;SDS011;40693;43.884;20.340;2022-09-21T09:38:04;6.47;;;4.88;;
54795;SDS011;40693;43.884;20.340;2022-09-21T09:48:36;6.82;;;5.70;;
54795;SDS011;40693;43.884;20.340;2022-09-21T09:51:12;9.20;;;5.95;;
54795;SDS011;40693;43.884;20.340;2022-09-21T09:53:38;7.70;;;6.00;;
54795;SDS011;40693;43.884;20.340;2022-09-21T09:56:04;8.20;;;6.05;;
54795;SDS011;40693;43.884;20.340;2022-09-21T10:01:37;6.57;;;5.25;;
54795;SDS011;40693;43.884;20.340;2022-09-21T10:04:23;12.10;;;6.70;;
54795;SDS011;40693;43.884;20.340;2022-09-21T10:06:49;7.18;;;5.88;;
54795;SDS011;40693;43.884;20.340;2022-09-21T10:11:51;6.90;;;5.05;;
54795;SDS011;40693;43.884;20.340;2022-09-21T10:14:21;6.03;;;4.65;;
54795;SDS011;40693;43.884;20.340;2022-09-21T10:16:49;4.68;;;4.20;;
54795;SDS011;40693;43.884;20.340;2022-09-21T10:19:17;8.02;;;7.13;;
54795;SDS011;40693;43.884;20.340;2022-09-21T10:21:46;6.07;;;5.20;;
54795;SDS011;40693;43.884;20.340;2022-09-21T10:24:36;6.45;;;5.03;;
54795;SDS011;40693;43.884;20.340;2022-09-21T10:27:11;6.28;;;4.97;;
54795;SDS011;40693;43.884;20.340;2022-09-21T10:29:42;6.38;;;5.22;;
54795;SDS011;40693;43.884;20.340;2022-09-21T10:34:40;4.55;;;3.95;;
54795;SDS011;40693;43.884;20.340;2022-09-21T10:37:31;5.43;;;3.85;;
54795;SDS011;40693;43.884;20.340;2022-09-21T10:39:59;4.25;;;3.80;;
54795;SDS011;40693;43.884;20.340;2022-09-21T10:42:26;5.35;;;4.10;;
54795;SDS011;40693;43.884;20.340;2022-09-21T10:45:05;5.55;;;4.25;;
54795;SDS011;40693;43.884;20.340;2022-09-21T10:48:05;5.50;;;4.77;;
54795;SDS011;40693;43.884;20.340;2022-09-21T10:50:41;5.13;;;4.60;;
54795;SDS011;40693;43.884;20.340;2022-09-21T10:53:26;5.65;;;4.85;;
54795;SDS011;40693;43.884;20.340;2022-09-21T10:58:23;4.47;;;4.07;;
54795;SDS011;40693;43.884;20.340;2022-09-21T11:00:49;5.28;;;4.45;;
54795;SDS011;40693;43.884;20.340;2022-09-21T11:05:55;5.47;;;4.30;;
54795;SDS011;40693;43.884;20.340;2022-09-21T11:08:45;5.13;;;4.05;;
54795;SDS011;40693;43.884;20.340;2022-09-21T11:11:41;6.03;;;3.97;;
54795;SDS011;40693;43.884;20.340;2022-09-21T11:16:54;6.38;;;5.70;;
54795;SDS011;40693;43.884;20.340;2022-09-21T11:22:46;4.07;;;3.65;;
54795;SDS011;40693;43.884;20.340;2022-09-21T11:29:07;5.82;;;5.30;;
54795;SDS011;40693;43.884;20.340;2022-09-21T11:31:25;4.78;;;4.28;;
54795;SDS011;40693;43.884;20.340;2022-09-21T11:50:06;4.32;;;2.63;;
54795;SDS011;40693;43.884;20.340;2022-09-21T12:03:55;4.45;;;3.42;;
54795;SDS011;40693;43.884;20.340;2022-09-21T12:12:05;5.72;;;3.50;;
54795;SDS011;40693;43.884;20.340;2022-09-21T12:15:07;4.95;;;3.00;;
54795;SDS011;40693;43.884;20.340;2022-09-21T12:23:18;5.47;;;3.22;;
54795;SDS011;40693;43.884;20.340;2022-09-21T12:25:51;4.47;;;3.10;;
54795;SDS011;40693;43.884;20.340;2022-09-21T12:28:31;4.35;;;2.58;;
54795;SDS011;40693;43.884;20.340;2022-09-21T12:34:16;5.38;;;3.40;;
54795;SDS011;40693;43.884;20.340;2022-09-21T12:36:49;5.85;;;3.45;;
54795;SDS011;40693;43.884;20.340;2022-09-21T12:39:45;10.07;;;5.13;;
54795;SDS011;40693;43.884;20.340;2022-09-21T12:46:00;6.13;;;4.50;;
54795;SDS011;40693;43.884;20.340;2022-09-21T12:48:28;3.40;;;2.67;;
54795;SDS011;40693;43.884;20.340;2022-09-21T12:51:01;4.68;;;3.55;;
54795;SDS011;40693;43.884;20.340;2022-09-21T12:53:32;10.77;;;6.82;;
54795;SDS011;40693;43.884;20.340;2022-09-21T13:13:03;13.80;;;7.65;;
54795;SDS011;40693;43.884;20.340;2022-09-21T13:15:41;6.00;;;4.47;;
54795;SDS011;40693;43.884;20.340;2022-09-21T13:18:19;10.65;;;4.60;;
54795;SDS011;40693;43.884;20.340;2022-09-21T13:20:52;7.45;;;3.75;;
54795;SDS011;40693;43.884;20.340;2022-09-21T13:23:21;6.85;;;4.78;;
54795;SDS011;40693;43.884;20.340;2022-09-21T13:25:59;6.32;;;5.03;;
54795;SDS011;40693;43.884;20.340;2022-09-21T13:36:39;17.55;;;8.02;;
54795;SDS011;40693;43.884;20.340;2022-09-21T13:39:18;11.52;;;6.03;;
54795;SDS011;40693;43.884;20.340;2022-09-21T13:41:44;10.55;;;6.22;;
54795;SDS011;40693;43.884;20.340;2022-09-21T13:46:58;13.45;;;5.75;;
54795;SDS011;40693;43.884;20.340;2022-09-21T13:49:44;4.25;;;2.88;;
54795;SDS011;40693;43.884;20.340;2022-09-21T13:54:51;3.88;;;2.45;;
54795;SDS011;40693;43.884;20.340;2022-09-21T14:00:02;12.07;;;7.47;;
54795;SDS011;40693;43.884;20.340;2022-09-21T14:07:56;5.05;;;3.22;;
54795;SDS011;40693;43.884;20.340;2022-09-21T14:10:24;8.77;;;4.38;;
54795;SDS011;40693;43.884;20.340;2022-09-21T14:12:51;5.70;;;4.35;;
54795;SDS011;40693;43.884;20.340;2022-09-21T14:21:11;14.63;;;6.50;;
54795;SDS011;40693;43.884;20.340;2022-09-21T14:29:51;8.98;;;5.03;;
54795;SDS011;40693;43.884;20.340;2022-09-21T14:31:52;4.00;;;3.25;;
54795;SDS011;40693;43.884;20.340;2022-09-21T14:34:23;14.40;;;8.00;;
54795;SDS011;40693;43.884;20.340;2022-09-21T14:36:56;8.80;;;4.82;;
54795;SDS011;40693;43.884;20.340;2022-09-21T14:42:07;5.80;;;3.45;;
54795;SDS011;40693;43.884;20.340;2022-09-21T14:44:43;8.75;;;4.88;;
54795;SDS011;40693;43.884;20.340;2022-09-21T15:06:46;25.88;;;14.45;;
54795;SDS011;40693;43.884;20.340;2022-09-21T15:13:08;9.60;;;5.20;;
54795;SDS011;40693;43.884;20.340;2022-09-21T15:15:57;14.15;;;7.38;;
54795;SDS011;40693;43.884;20.340;2022-09-21T15:19:34;10.57;;;6.70;;
54795;SDS011;40693;43.884;20.340;2022-09-21T15:21:45;5.03;;;3.75;;
54795;SDS011;40693;43.884;20.340;2022-09-21T15:26:53;5.25;;;4.05;;
54795;SDS011;40693;43.884;20.340;2022-09-21T15:29:38;7.28;;;5.93;;
54795;SDS011;40693;43.884;20.340;2022-09-21T15:32:23;6.07;;;4.32;;
54795;SDS011;40693;43.884;20.340;2022-09-21T15:35:02;8.32;;;5.65;;
54795;SDS011;40693;43.884;20.340;2022-09-21T15:37:34;9.68;;;6.05;;
54795;SDS011;40693;43.884;20.340;2022-09-21T15:40:01;8.07;;;4.88;;
54795;SDS011;40693;43.884;20.340;2022-09-21T15:42:30;13.98;;;5.53;;
54795;SDS011;40693;43.884;20.340;2022-09-21T15:47:41;9.13;;;6.30;;
54795;SDS011;40693;43.884;20.340;2022-09-21T15:50:15;7.57;;;5.45;;
54795;SDS011;40693;43.884;20.340;2022-09-21T15:52:47;6.93;;;5.53;;
54795;SDS011;40693;43.884;20.340;2022-09-21T15:55:19;9.90;;;6.10;;
54795;SDS011;40693;43.884;20.340;2022-09-21T15:57:50;10.55;;;5.60;;
54795;SDS011;40693;43.884;20.340;2022-09-21T16:05:29;7.90;;;5.03;;
54795;SDS011;40693;43.884;20.340;2022-09-21T16:13:43;8.55;;;6.28;;
54795;SDS011;40693;43.884;20.340;2022-09-21T16:16:30;14.20;;;7.63;;
54795;SDS011;40693;43.884;20.340;2022-09-21T16:18:56;15.80;;;9.32;;
54795;SDS011;40693;43.884;20.340;2022-09-21T16:21:27;15.02;;;8.40;;
54795;SDS011;40693;43.884;20.340;2022-09-21T16:23:57;18.77;;;7.72;;
54795;SDS011;40693;43.884;20.340;2022-09-21T16:26:54;5.38;;;4.70;;
54795;SDS011;40693;43.884;20.340;2022-09-21T16:29:23;9.00;;;4.95;;
54795;SDS011;40693;43.884;20.340;2022-09-21T16:34:49;15.63;;;12.43;;
54795;SDS011;40693;43.884;20.340;2022-09-21T16:39:53;18.80;;;14.60;;
54795;SDS011;40693;43.884;20.340;2022-09-21T16:42:23;17.92;;;13.23;;
54795;SDS011;40693;43.884;20.340;2022-09-21T16:44:51;13.55;;;9.30;;
54795;SDS011;40693;43.884;20.340;2022-09-21T16:47:22;14.50;;;10.43;;
54795;SDS011;40693;43.884;20.340;2022-09-21T16:49:51;19.73;;;12.65;;
54795;SDS011;40693;43.884;20.340;2022-09-21T16:52:19;17.52;;;12.77;;
54795;SDS011;40693;43.884;20.340;2022-09-21T16:54:45;17.05;;;11.95;;
54795;SDS011;40693;43.884;20.340;2022-09-21T16:57:13;19.08;;;12.73;;
54795;SDS011;40693;43.884;20.340;2022-09-21T16:59:39;17.95;;;13.85;;
54795;SDS011;40693;43.884;20.340;2022-09-21T17:02:05;19.08;;;12.18;;
54795;SDS011;40693;43.884;20.340;2022-09-21T17:04:32;17.77;;;13.90;;
54795;SDS011;40693;43.884;20.340;2022-09-21T17:06:59;18.48;;;12.73;;
54795;SDS011;40693;43.884;20.340;2022-09-21T17:09:31;18.17;;;12.30;;
54795;SDS011;40693;43.884;20.340;2022-09-21T17:11:59;25.25;;;15.75;;
54795;SDS011;40693;43.884;20.340;2022-09-21T17:14:30;27.55;;;17.42;;
54795;SDS011;40693;43.884;20.340;2022-09-21T17:16:59;29.60;;;19.27;;
54795;SDS011;40693;43.884;20.340;2022-09-21T17:19:47;39.08;;;25.88;;
54795;SDS011;40693;43.884;20.340;2022-09-21T17:22:14;39.35;;;26.80;;
54795;SDS011;40693;43.884;20.340;2022-09-21T17:24:43;52.30;;;34.88;;
54795;SDS011;40693;43.884;20.340;2022-09-21T17:27:11;44.33;;;32.17;;
54795;SDS011;40693;43.884;20.340;2022-09-21T17:29:37;38.20;;;26.85;;
54795;SDS011;40693;43.884;20.340;2022-09-21T17:32:11;74.85;;;50.20;;
54795;SDS011;40693;43.884;20.340;2022-09-21T17:34:38;40.85;;;27.42;;
54795;SDS011;40693;43.884;20.340;2022-09-21T17:37:06;39.00;;;21.85;;
54795;SDS011;40693;43.884;20.340;2022-09-21T17:39:34;28.27;;;18.02;;
54795;SDS011;40693;43.884;20.340;2022-09-21T17:42:05;34.63;;;20.67;;
54795;SDS011;40693;43.884;20.340;2022-09-21T17:47:43;40.03;;;24.40;;
54795;SDS011;40693;43.884;20.340;2022-09-21T17:52:41;26.17;;;16.05;;
54795;SDS011;40693;43.884;20.340;2022-09-21T17:55:26;23.17;;;14.48;;
54795;SDS011;40693;43.884;20.340;2022-09-21T17:57:58;12.45;;;8.82;;
54795;SDS011;40693;43.884;20.340;2022-09-21T18:03:19;21.33;;;15.15;;
54795;SDS011;40693;43.884;20.340;2022-09-21T18:05:51;24.98;;;18.38;;
54795;SDS011;40693;43.884;20.340;2022-09-21T18:08:21;25.70;;;19.33;;
54795;SDS011;40693;43.884;20.340;2022-09-21T18:19:28;37.70;;;23.58;;
54795;SDS011;40693;43.884;20.340;2022-09-21T18:22:21;15.77;;;12.20;;
54795;SDS011;40693;43.884;20.340;2022-09-21T18:24:55;22.05;;;16.35;;
54795;SDS011;40693;43.884;20.340;2022-09-21T18:27:22;29.33;;;19.05;;
54795;SDS011;40693;43.884;20.340;2022-09-21T18:29:48;100.93;;;64.03;;
54795;SDS011;40693;43.884;20.340;2022-09-21T18:32:33;88.80;;;52.67;;
54795;SDS011;40693;43.884;20.340;2022-09-21T18:40:43;25.63;;;17.73;;
54795;SDS011;40693;43.884;20.340;2022-09-21T18:51:48;57.17;;;36.83;;
54795;SDS011;40693;43.884;20.340;2022-09-21T18:54:22;43.22;;;26.10;;
54795;SDS011;40693;43.884;20.340;2022-09-21T18:56:51;31.45;;;19.65;;
54795;SDS011;40693;43.884;20.340;2022-09-21T18:59:17;59.88;;;41.17;;
54795;SDS011;40693;43.884;20.340;2022-09-21T19:01:43;43.95;;;30.17;;
54795;SDS011;40693;43.884;20.340;2022-09-21T19:04:11;56.38;;;35.85;;
54795;SDS011;40693;43.884;20.340;2022-09-21T19:06:45;49.60;;;30.92;;
54795;SDS011;40693;43.884;20.340;2022-09-21T19:31:46;22.35;;;14.85;;
54795;SDS011;40693;43.884;20.340;2022-09-21T19:34:15;22.08;;;13.93;;
54795;SDS011;40693;43.884;20.340;2022-09-21T19:36:44;47.08;;;27.80;;
54795;SDS011;40693;43.884;20.340;2022-09-21T19:39:13;50.60;;;36.65;;
54795;SDS011;40693;43.884;20.340;2022-09-21T19:50:00;27.55;;;15.93;;
54795;SDS011;40693;43.884;20.340;2022-09-21T19:52:31;28.42;;;14.55;;
54795;SDS011;40693;43.884;20.340;2022-09-21T19:54:59;14.18;;;9.38;;
54795;SDS011;40693;43.884;20.340;2022-09-21T19:57:44;13.95;;;7.75;;